sensor_id;sensor_type;location;lat;lon;timestamp;temperature;humidity
27114;DHT22;14648;49.730;8.614;2022-12-11T00:01:14;-0.10;56.30
27114;DHT22;14648;49.730;8.614;2022-12-11T00:03:41;-0.10;56.30
27114;DHT22;14648;49.730;8.614;2022-12-11T00:06:10;-0.10;56.40
27114;DHT22;14648;49.730;8.614;2022-12-11T00:08:38;0.00;56.40
27114;DHT22;14648;49.730;8.614;2022-12-11T00:11:06;0.00;56.40
27114;DHT22;14648;49.730;8.614;2022-12-11T00:13:32;0.00;56.50
27114;DHT22;14648;49.730;8.614;2022-12-11T00:15:58;0.00;56.50
27114;DHT22;14648;49.730;8.614;2022-12-11T00:18:24;0.00;56.50
27114;DHT22;14648;49.730;8.614;2022-12-11T00:20:50;0.10;56.70
27114;DHT22;14648;49.730;8.614;2022-12-11T00:23:15;0.10;56.70
27114;DHT22;14648;49.730;8.614;2022-12-11T00:25:46;0.10;56.70
27114;DHT22;14648;49.730;8.614;2022-12-11T00:28:14;0.10;56.80
27114;DHT22;14648;49.730;8.614;2022-12-11T00:30:44;0.10;56.80
27114;DHT22;14648;49.730;8.614;2022-12-11T00:33:11;0.10;56.90
27114;DHT22;14648;49.730;8.614;2022-12-11T00:35:43;0.10;56.90
27114;DHT22;14648;49.730;8.614;2022-12-11T00:38:16;0.10;56.90
27114;DHT22;14648;49.730;8.614;2022-12-11T00:40:44;0.20;56.90
27114;DHT22;14648;49.730;8.614;2022-12-11T00:43:10;0.20;57.60
27114;DHT22;14648;49.730;8.614;2022-12-11T00:45:37;0.20;57.00
27114;DHT22;14648;49.730;8.614;2022-12-11T00:48:05;0.20;57.00
27114;DHT22;14648;49.730;8.614;2022-12-11T00:50:31;0.20;57.10
27114;DHT22;14648;49.730;8.614;2022-12-11T00:52:59;0.20;57.10
27114;DHT22;14648;49.730;8.614;2022-12-11T00:55:25;0.30;57.30
27114;DHT22;14648;49.730;8.614;2022-12-11T00:57:53;0.30;57.30
27114;DHT22;14648;49.730;8.614;2022-12-11T01:00:20;0.30;57.30
27114;DHT22;14648;49.730;8.614;2022-12-11T01:02:48;0.30;57.40
27114;DHT22;14648;49.730;8.614;2022-12-11T01:05:14;0.30;57.40
27114;DHT22;14648;49.730;8.614;2022-12-11T01:07:40;0.30;57.40
27114;DHT22;14648;49.730;8.614;2022-12-11T01:10:05;0.40;57.50
27114;DHT22;14648;49.730;8.614;2022-12-11T01:12:55;0.40;57.50
27114;DHT22;14648;49.730;8.614;2022-12-11T01:15:28;0.40;57.50
27114;DHT22;14648;49.730;8.614;2022-12-11T01:17:56;0.40;57.40
27114;DHT22;14648;49.730;8.614;2022-12-11T01:20:24;0.40;57.50
27114;DHT22;14648;49.730;8.614;2022-12-11T01:22:55;0.50;57.60
27114;DHT22;14648;49.730;8.614;2022-12-11T01:25:24;0.50;57.50
27114;DHT22;14648;49.730;8.614;2022-12-11T01:27:51;0.50;57.40
27114;DHT22;14648;49.730;8.614;2022-12-11T01:30:20;0.50;57.50
27114;DHT22;14648;49.730;8.614;2022-12-11T01:32:47;0.40;57.70
27114;DHT22;14648;49.730;8.614;2022-12-11T01:35:13;0.40;57.90
27114;DHT22;14648;49.730;8.614;2022-12-11T01:37:39;0.40;57.90
27114;DHT22;14648;49.730;8.614;2022-12-11T01:40:07;0.40;57.90
27114;DHT22;14648;49.730;8.614;2022-12-11T01:42:34;0.40;57.90
27114;DHT22;14648;49.730;8.614;2022-12-11T01:48:05;0.50;58.10
27114;DHT22;14648;49.730;8.614;2022-12-11T01:50:38;0.50;58.00
27114;DHT22;14648;49.730;8.614;2022-12-11T01:53:08;0.50;58.00
27114;DHT22;14648;49.730;8.614;2022-12-11T01:55:37;0.50;58.10
27114;DHT22;14648;49.730;8.614;2022-12-11T01:58:03;0.50;58.00
27114;DHT22;14648;49.730;8.614;2022-12-11T02:00:30;0.50;58.00
27114;DHT22;14648;49.730;8.614;2022-12-11T02:02:55;0.60;57.90
27114;DHT22;14648;49.730;8.614;2022-12-11T02:05:21;0.60;58.00
27114;DHT22;14648;49.730;8.614;2022-12-11T02:07:54;0.60;58.00
27114;DHT22;14648;49.730;8.614;2022-12-11T02:10:35;0.60;58.00
27114;DHT22;14648;49.730;8.614;2022-12-11T02:13:43;0.60;58.00
27114;DHT22;14648;49.730;8.614;2022-12-11T02:16:23;0.60;58.10
27114;DHT22;14648;49.730;8.614;2022-12-11T02:19:10;0.70;58.10
27114;DHT22;14648;49.730;8.614;2022-12-11T02:21:48;0.70;58.10
27114;DHT22;14648;49.730;8.614;2022-12-11T02:24:31;0.70;58.20
27114;DHT22;14648;49.730;8.614;2022-12-11T02:30:13;0.70;58.20
27114;DHT22;14648;49.730;8.614;2022-12-11T02:32:42;0.70;58.10
27114;DHT22;14648;49.730;8.614;2022-12-11T02:35:18;0.70;58.10
27114;DHT22;14648;49.730;8.614;2022-12-11T02:37:48;0.70;58.10
27114;DHT22;14648;49.730;8.614;2022-12-11T02:40:25;0.70;58.10
27114;DHT22;14648;49.730;8.614;2022-12-11T02:42:54;0.70;58.20
27114;DHT22;14648;49.730;8.614;2022-12-11T02:45:23;0.70;58.10
27114;DHT22;14648;49.730;8.614;2022-12-11T02:47:50;0.70;58.20
27114;DHT22;14648;49.730;8.614;2022-12-11T02:50:20;0.70;58.30
27114;DHT22;14648;49.730;8.614;2022-12-11T02:52:49;0.70;58.30
27114;DHT22;14648;49.730;8.614;2022-12-11T02:55:17;0.70;58.40
27114;DHT22;14648;49.730;8.614;2022-12-11T02:57:48;0.70;58.40
27114;DHT22;14648;49.730;8.614;2022-12-11T03:00:16;0.80;58.40
27114;DHT22;14648;49.730;8.614;2022-12-11T03:02:43;0.70;58.40
27114;DHT22;14648;49.730;8.614;2022-12-11T03:05:11;0.80;58.50
27114;DHT22;14648;49.730;8.614;2022-12-11T03:07:40;0.80;58.60
27114;DHT22;14648;49.730;8.614;2022-12-11T03:10:09;0.80;58.60
27114;DHT22;14648;49.730;8.614;2022-12-11T03:12:42;0.80;58.70
27114;DHT22;14648;49.730;8.614;2022-12-11T03:15:13;0.80;58.70
27114;DHT22;14648;49.730;8.614;2022-12-11T03:20:45;0.80;58.60
27114;DHT22;14648;49.730;8.614;2022-12-11T03:23:21;0.70;58.90
27114;DHT22;14648;49.730;8.614;2022-12-11T03:26:02;0.80;58.80
27114;DHT22;14648;49.730;8.614;2022-12-11T03:28:58;0.80;58.90
27114;DHT22;14648;49.730;8.614;2022-12-11T03:31:42;0.80;59.00
27114;DHT22;14648;49.730;8.614;2022-12-11T03:35:01;0.80;59.00
27114;DHT22;14648;49.730;8.614;2022-12-11T03:37:11;0.80;59.00
27114;DHT22;14648;49.730;8.614;2022-12-11T03:39:41;0.80;59.00
27114;DHT22;14648;49.730;8.614;2022-12-11T03:42:11;0.80;59.00
27114;DHT22;14648;49.730;8.614;2022-12-11T03:44:38;0.80;59.10
27114;DHT22;14648;49.730;8.614;2022-12-11T03:47:07;0.80;59.10
27114;DHT22;14648;49.730;8.614;2022-12-11T03:49:38;0.80;59.30
27114;DHT22;14648;49.730;8.614;2022-12-11T03:52:05;0.80;59.40
27114;DHT22;14648;49.730;8.614;2022-12-11T03:54:32;0.90;59.40
27114;DHT22;14648;49.730;8.614;2022-12-11T03:56:59;0.90;59.50
27114;DHT22;14648;49.730;8.614;2022-12-11T03:59:25;1.00;59.40
27114;DHT22;14648;49.730;8.614;2022-12-11T04:01:51;1.00;59.60
27114;DHT22;14648;49.730;8.614;2022-12-11T04:04:17;1.00;59.60
27114;DHT22;14648;49.730;8.614;2022-12-11T04:06:43;1.10;59.70
27114;DHT22;14648;49.730;8.614;2022-12-11T04:09:09;1.00;59.60
27114;DHT22;14648;49.730;8.614;2022-12-11T04:11:35;1.00;59.70
27114;DHT22;14648;49.730;8.614;2022-12-11T04:14:03;1.10;59.90
27114;DHT22;14648;49.730;8.614;2022-12-11T04:16:49;1.10;59.90
27114;DHT22;14648;49.730;8.614;2022-12-11T04:19:15;1.10;59.80
27114;DHT22;14648;49.730;8.614;2022-12-11T04:21:59;1.10;59.90
27114;DHT22;14648;49.730;8.614;2022-12-11T04:24:57;1.10;60.00
27114;DHT22;14648;49.730;8.614;2022-12-11T04:27:24;1.00;59.80
27114;DHT22;14648;49.730;8.614;2022-12-11T04:30:13;1.10;60.20
27114;DHT22;14648;49.730;8.614;2022-12-11T04:32:40;1.10;60.20
27114;DHT22;14648;49.730;8.614;2022-12-11T04:35:08;1.10;60.20
27114;DHT22;14648;49.730;8.614;2022-12-11T04:37:34;1.10;60.10
27114;DHT22;14648;49.730;8.614;2022-12-11T04:40:01;1.10;60.10
27114;DHT22;14648;49.730;8.614;2022-12-11T04:42:27;1.10;60.10
27114;DHT22;14648;49.730;8.614;2022-12-11T04:44:53;1.10;60.40
27114;DHT22;14648;49.730;8.614;2022-12-11T04:47:19;1.10;60.40
27114;DHT22;14648;49.730;8.614;2022-12-11T04:49:44;1.20;60.40
27114;DHT22;14648;49.730;8.614;2022-12-11T04:52:10;1.20;60.40
27114;DHT22;14648;49.730;8.614;2022-12-11T04:54:36;1.20;60.50
27114;DHT22;14648;49.730;8.614;2022-12-11T04:57:02;1.20;60.50
27114;DHT22;14648;49.730;8.614;2022-12-11T04:59:27;1.20;60.40
27114;DHT22;14648;49.730;8.614;2022-12-11T05:01:53;1.20;60.40
27114;DHT22;14648;49.730;8.614;2022-12-11T05:04:19;1.20;60.20
27114;DHT22;14648;49.730;8.614;2022-12-11T05:06:44;1.10;60.50
27114;DHT22;14648;49.730;8.614;2022-12-11T05:09:10;1.10;60.80
27114;DHT22;14648;49.730;8.614;2022-12-11T05:11:38;1.10;60.80
27114;DHT22;14648;49.730;8.614;2022-12-11T05:14:04;1.10;60.90
27114;DHT22;14648;49.730;8.614;2022-12-11T05:16:29;1.10;61.00
27114;DHT22;14648;49.730;8.614;2022-12-11T05:18:55;1.10;61.00
27114;DHT22;14648;49.730;8.614;2022-12-11T05:21:21;1.10;60.90
27114;DHT22;14648;49.730;8.614;2022-12-11T05:23:46;1.10;60.90
27114;DHT22;14648;49.730;8.614;2022-12-11T05:26:15;1.10;61.00
27114;DHT22;14648;49.730;8.614;2022-12-11T05:28:43;1.10;60.90
27114;DHT22;14648;49.730;8.614;2022-12-11T05:31:14;1.10;61.00
27114;DHT22;14648;49.730;8.614;2022-12-11T05:33:43;1.10;61.10
27114;DHT22;14648;49.730;8.614;2022-12-11T05:36:23;1.20;61.10
27114;DHT22;14648;49.730;8.614;2022-12-11T05:38:57;1.10;61.10
27114;DHT22;14648;49.730;8.614;2022-12-11T05:41:25;1.20;61.00
27114;DHT22;14648;49.730;8.614;2022-12-11T05:43:55;1.10;61.10
27114;DHT22;14648;49.730;8.614;2022-12-11T05:46:26;1.10;61.10
27114;DHT22;14648;49.730;8.614;2022-12-11T05:48:56;1.10;61.20
27114;DHT22;14648;49.730;8.614;2022-12-11T05:51:23;1.10;61.20
27114;DHT22;14648;49.730;8.614;2022-12-11T05:53:50;1.10;61.20
27114;DHT22;14648;49.730;8.614;2022-12-11T05:56:23;1.10;61.40
27114;DHT22;14648;49.730;8.614;2022-12-11T05:58:51;1.10;61.40
27114;DHT22;14648;49.730;8.614;2022-12-11T06:01:24;1.10;61.40
27114;DHT22;14648;49.730;8.614;2022-12-11T06:03:53;1.10;61.40
27114;DHT22;14648;49.730;8.614;2022-12-11T06:06:19;1.10;61.40
27114;DHT22;14648;49.730;8.614;2022-12-11T06:08:48;1.10;61.40
27114;DHT22;14648;49.730;8.614;2022-12-11T06:11:14;1.10;61.40
27114;DHT22;14648;49.730;8.614;2022-12-11T06:13:40;1.10;61.40
27114;DHT22;14648;49.730;8.614;2022-12-11T06:16:06;1.00;61.40
27114;DHT22;14648;49.730;8.614;2022-12-11T06:18:38;1.00;61.30
27114;DHT22;14648;49.730;8.614;2022-12-11T06:21:15;1.00;61.10
27114;DHT22;14648;49.730;8.614;2022-12-11T06:23:43;0.90;61.40
27114;DHT22;14648;49.730;8.614;2022-12-11T06:26:10;0.80;61.50
27114;DHT22;14648;49.730;8.614;2022-12-11T06:28:36;0.80;61.60
27114;DHT22;14648;49.730;8.614;2022-12-11T06:31:03;0.70;61.70
27114;DHT22;14648;49.730;8.614;2022-12-11T06:33:29;0.70;61.70
27114;DHT22;14648;49.730;8.614;2022-12-11T06:35:55;0.70;61.80
27114;DHT22;14648;49.730;8.614;2022-12-11T06:38:23;0.70;61.80
27114;DHT22;14648;49.730;8.614;2022-12-11T06:40:56;0.70;61.80
27114;DHT22;14648;49.730;8.614;2022-12-11T06:43:23;0.70;61.80
27114;DHT22;14648;49.730;8.614;2022-12-11T06:45:49;0.70;61.80
27114;DHT22;14648;49.730;8.614;2022-12-11T06:48:16;0.70;61.80
27114;DHT22;14648;49.730;8.614;2022-12-11T06:50:42;0.60;61.70
27114;DHT22;14648;49.730;8.614;2022-12-11T06:53:09;0.60;61.80
27114;DHT22;14648;49.730;8.614;2022-12-11T06:55:37;0.50;61.70
27114;DHT22;14648;49.730;8.614;2022-12-11T06:58:03;0.50;61.80
27114;DHT22;14648;49.730;8.614;2022-12-11T07:00:30;0.50;61.80
27114;DHT22;14648;49.730;8.614;2022-12-11T07:02:55;0.40;61.60
27114;DHT22;14648;49.730;8.614;2022-12-11T07:05:21;0.40;61.80
27114;DHT22;14648;49.730;8.614;2022-12-11T07:07:47;0.40;61.90
27114;DHT22;14648;49.730;8.614;2022-12-11T07:10:12;0.50;61.90
27114;DHT22;14648;49.730;8.614;2022-12-11T07:12:38;0.40;61.90
27114;DHT22;14648;49.730;8.614;2022-12-11T07:15:04;0.50;61.90
27114;DHT22;14648;49.730;8.614;2022-12-11T07:17:30;0.50;61.80
27114;DHT22;14648;49.730;8.614;2022-12-11T07:19:56;0.50;61.90
27114;DHT22;14648;49.730;8.614;2022-12-11T07:22:22;0.50;61.90
27114;DHT22;14648;49.730;8.614;2022-12-11T07:24:47;0.50;62.00
27114;DHT22;14648;49.730;8.614;2022-12-11T07:27:13;0.60;61.80
27114;DHT22;14648;49.730;8.614;2022-12-11T07:29:39;0.60;62.30
27114;DHT22;14648;49.730;8.614;2022-12-11T07:32:05;0.60;61.90
27114;DHT22;14648;49.730;8.614;2022-12-11T07:34:30;0.60;61.80
27114;DHT22;14648;49.730;8.614;2022-12-11T07:36:56;0.60;61.80
27114;DHT22;14648;49.730;8.614;2022-12-11T07:39:22;0.60;61.80
27114;DHT22;14648;49.730;8.614;2022-12-11T07:41:48;0.60;61.60
27114;DHT22;14648;49.730;8.614;2022-12-11T07:44:14;0.60;61.60
27114;DHT22;14648;49.730;8.614;2022-12-11T07:46:40;0.60;61.90
27114;DHT22;14648;49.730;8.614;2022-12-11T07:49:06;0.60;61.70
27114;DHT22;14648;49.730;8.614;2022-12-11T07:51:33;0.50;61.90
27114;DHT22;14648;49.730;8.614;2022-12-11T07:54:03;0.50;62.00
27114;DHT22;14648;49.730;8.614;2022-12-11T07:56:31;0.50;62.10
27114;DHT22;14648;49.730;8.614;2022-12-11T07:59:02;0.50;62.20
27114;DHT22;14648;49.730;8.614;2022-12-11T08:01:29;0.50;62.10
27114;DHT22;14648;49.730;8.614;2022-12-11T08:03:59;0.50;62.10
27114;DHT22;14648;49.730;8.614;2022-12-11T08:06:27;0.50;62.10
27114;DHT22;14648;49.730;8.614;2022-12-11T08:08:58;0.50;62.10
27114;DHT22;14648;49.730;8.614;2022-12-11T08:11:25;0.50;62.10
27114;DHT22;14648;49.730;8.614;2022-12-11T08:13:51;0.50;62.10
27114;DHT22;14648;49.730;8.614;2022-12-11T08:16:17;0.40;61.90
27114;DHT22;14648;49.730;8.614;2022-12-11T08:18:46;0.40;62.10
27114;DHT22;14648;49.730;8.614;2022-12-11T08:21:20;0.40;62.10
27114;DHT22;14648;49.730;8.614;2022-12-11T08:23:48;0.50;62.40
27114;DHT22;14648;49.730;8.614;2022-12-11T08:26:17;0.50;62.30
27114;DHT22;14648;49.730;8.614;2022-12-11T08:28:45;0.60;62.10
27114;DHT22;14648;49.730;8.614;2022-12-11T08:31:12;0.60;62.00
27114;DHT22;14648;49.730;8.614;2022-12-11T08:33:39;0.70;62.10
27114;DHT22;14648;49.730;8.614;2022-12-11T08:36:10;0.70;62.00
27114;DHT22;14648;49.730;8.614;2022-12-11T08:38:38;0.70;62.00
27114;DHT22;14648;49.730;8.614;2022-12-11T08:41:12;0.70;62.00
27114;DHT22;14648;49.730;8.614;2022-12-11T08:43:41;0.70;62.00
27114;DHT22;14648;49.730;8.614;2022-12-11T08:46:09;0.70;62.00
27114;DHT22;14648;49.730;8.614;2022-12-11T08:48:37;0.70;62.20
27114;DHT22;14648;49.730;8.614;2022-12-11T08:51:06;0.80;62.20
27114;DHT22;14648;49.730;8.614;2022-12-11T08:53:33;0.90;62.30
27114;DHT22;14648;49.730;8.614;2022-12-11T08:56:07;0.90;62.20
27114;DHT22;14648;49.730;8.614;2022-12-11T08:58:35;0.90;62.20
27114;DHT22;14648;49.730;8.614;2022-12-11T09:01:12;1.00;62.10
27114;DHT22;14648;49.730;8.614;2022-12-11T09:03:48;1.00;62.20
27114;DHT22;14648;49.730;8.614;2022-12-11T09:06:17;1.00;62.10
27114;DHT22;14648;49.730;8.614;2022-12-11T09:08:46;1.00;62.30
27114;DHT22;14648;49.730;8.614;2022-12-11T09:11:18;1.00;62.40
27114;DHT22;14648;49.730;8.614;2022-12-11T09:13:45;1.10;62.50
27114;DHT22;14648;49.730;8.614;2022-12-11T09:16:14;1.10;62.60
27114;DHT22;14648;49.730;8.614;2022-12-11T09:18:41;1.10;62.60
27114;DHT22;14648;49.730;8.614;2022-12-11T09:21:10;1.10;62.50
27114;DHT22;14648;49.730;8.614;2022-12-11T09:23:38;1.10;62.60
27114;DHT22;14648;49.730;8.614;2022-12-11T09:26:10;1.10;62.50
27114;DHT22;14648;49.730;8.614;2022-12-11T09:28:37;1.10;63.40
27114;DHT22;14648;49.730;8.614;2022-12-11T09:31:09;1.10;62.60
27114;DHT22;14648;49.730;8.614;2022-12-11T09:33:36;1.00;62.50
27114;DHT22;14648;49.730;8.614;2022-12-11T09:36:03;1.00;62.60
27114;DHT22;14648;49.730;8.614;2022-12-11T09:38:30;1.00;62.70
27114;DHT22;14648;49.730;8.614;2022-12-11T09:40:57;1.00;62.80
27114;DHT22;14648;49.730;8.614;2022-12-11T09:46:13;1.10;62.70
27114;DHT22;14648;49.730;8.614;2022-12-11T09:48:42;1.10;62.80
27114;DHT22;14648;49.730;8.614;2022-12-11T09:54:03;1.10;63.40
27114;DHT22;14648;49.730;8.614;2022-12-11T09:56:58;1.10;62.70
27114;DHT22;14648;49.730;8.614;2022-12-11T09:59:34;1.10;63.00
27114;DHT22;14648;49.730;8.614;2022-12-11T10:02:26;1.20;62.70
27114;DHT22;14648;49.730;8.614;2022-12-11T10:05:46;1.20;62.50
27114;DHT22;14648;49.730;8.614;2022-12-11T10:08:34;1.30;62.50
27114;DHT22;14648;49.730;8.614;2022-12-11T10:11:44;1.30;62.50
27114;DHT22;14648;49.730;8.614;2022-12-11T10:14:27;1.40;62.50
27114;DHT22;14648;49.730;8.614;2022-12-11T10:17:39;1.40;62.10
27114;DHT22;14648;49.730;8.614;2022-12-11T10:20:16;1.50;62.30
27114;DHT22;14648;49.730;8.614;2022-12-11T10:22:45;1.50;62.30
27114;DHT22;14648;49.730;8.614;2022-12-11T10:25:21;1.50;62.30
27114;DHT22;14648;49.730;8.614;2022-12-11T10:27:50;1.50;62.30
27114;DHT22;14648;49.730;8.614;2022-12-11T10:30:21;1.60;62.50
27114;DHT22;14648;49.730;8.614;2022-12-11T10:32:56;1.60;62.40
27114;DHT22;14648;49.730;8.614;2022-12-11T10:36:04;1.70;62.50
27114;DHT22;14648;49.730;8.614;2022-12-11T10:38:38;1.70;62.50
27114;DHT22;14648;49.730;8.614;2022-12-11T10:41:13;1.70;62.40
27114;DHT22;14648;49.730;8.614;2022-12-11T10:43:47;1.70;62.10
27114;DHT22;14648;49.730;8.614;2022-12-11T10:46:22;1.70;62.20
27114;DHT22;14648;49.730;8.614;2022-12-11T10:51:20;1.70;62.50
27114;DHT22;14648;49.730;8.614;2022-12-11T10:53:57;1.70;62.50
27114;DHT22;14648;49.730;8.614;2022-12-11T10:56:28;1.80;62.50
27114;DHT22;14648;49.730;8.614;2022-12-11T10:58:57;1.80;62.30
27114;DHT22;14648;49.730;8.614;2022-12-11T11:01:25;1.80;62.30
27114;DHT22;14648;49.730;8.614;2022-12-11T11:04:03;1.80;62.20
27114;DHT22;14648;49.730;8.614;2022-12-11T11:06:31;1.80;62.30
27114;DHT22;14648;49.730;8.614;2022-12-11T11:08:59;1.80;62.20
27114;DHT22;14648;49.730;8.614;2022-12-11T11:11:34;1.80;62.20
27114;DHT22;14648;49.730;8.614;2022-12-11T11:14:15;1.80;62.30
27114;DHT22;14648;49.730;8.614;2022-12-11T11:16:45;1.80;62.30
27114;DHT22;14648;49.730;8.614;2022-12-11T11:21:49;1.80;62.30
27114;DHT22;14648;49.730;8.614;2022-12-11T11:24:27;1.80;62.30
27114;DHT22;14648;49.730;8.614;2022-12-11T11:26:59;1.80;62.40
27114;DHT22;14648;49.730;8.614;2022-12-11T11:29:31;1.80;62.30
27114;DHT22;14648;49.730;8.614;2022-12-11T11:32:14;1.80;62.40
27114;DHT22;14648;49.730;8.614;2022-12-11T11:34:43;1.80;62.50
27114;DHT22;14648;49.730;8.614;2022-12-11T11:37:38;1.80;62.50
27114;DHT22;14648;49.730;8.614;2022-12-11T11:43:02;1.90;62.50
27114;DHT22;14648;49.730;8.614;2022-12-11T11:45:52;1.90;62.40
27114;DHT22;14648;49.730;8.614;2022-12-11T11:48:43;2.00;62.30
27114;DHT22;14648;49.730;8.614;2022-12-11T11:51:35;1.90;62.20
27114;DHT22;14648;49.730;8.614;2022-12-11T11:54:19;1.90;62.30
27114;DHT22;14648;49.730;8.614;2022-12-11T12:00:28;1.90;62.60
27114;DHT22;14648;49.730;8.614;2022-12-11T12:03:00;2.00;62.50
27114;DHT22;14648;49.730;8.614;2022-12-11T12:05:53;2.00;62.30
27114;DHT22;14648;49.730;8.614;2022-12-11T12:14:29;2.10;62.20
27114;DHT22;14648;49.730;8.614;2022-12-11T12:17:44;2.10;62.00
27114;DHT22;14648;49.730;8.614;2022-12-11T12:28:53;2.00;62.30
27114;DHT22;14648;49.730;8.614;2022-12-11T12:31:50;2.00;62.40
27114;DHT22;14648;49.730;8.614;2022-12-11T12:46:27;2.00;62.30
27114;DHT22;14648;49.730;8.614;2022-12-11T12:48:56;2.00;62.10
27114;DHT22;14648;49.730;8.614;2022-12-11T12:51:24;2.00;62.30
27114;DHT22;14648;49.730;8.614;2022-12-11T12:53:54;2.00;62.30
27114;DHT22;14648;49.730;8.614;2022-12-11T12:56:22;2.00;62.40
27114;DHT22;14648;49.730;8.614;2022-12-11T12:58:49;2.00;62.30
27114;DHT22;14648;49.730;8.614;2022-12-11T13:01:21;2.00;62.40
27114;DHT22;14648;49.730;8.614;2022-12-11T13:03:59;2.00;62.20
27114;DHT22;14648;49.730;8.614;2022-12-11T13:06:40;2.00;62.40
27114;DHT22;14648;49.730;8.614;2022-12-11T13:09:26;2.00;62.30
27114;DHT22;14648;49.730;8.614;2022-12-11T13:11:56;1.90;62.40
27114;DHT22;14648;49.730;8.614;2022-12-11T13:14:32;1.90;62.40
27114;DHT22;14648;49.730;8.614;2022-12-11T13:19:47;1.90;62.50
27114;DHT22;14648;49.730;8.614;2022-12-11T13:25:15;1.80;62.50
27114;DHT22;14648;49.730;8.614;2022-12-11T13:27:44;1.90;62.70
27114;DHT22;14648;49.730;8.614;2022-12-11T13:30:20;1.90;62.50
27114;DHT22;14648;49.730;8.614;2022-12-11T13:33:26;2.00;62.50
27114;DHT22;14648;49.730;8.614;2022-12-11T13:36:27;1.90;62.50
27114;DHT22;14648;49.730;8.614;2022-12-11T13:39:00;1.90;62.40
27114;DHT22;14648;49.730;8.614;2022-12-11T13:41:32;2.00;62.30
27114;DHT22;14648;49.730;8.614;2022-12-11T13:44:00;2.00;62.40
27114;DHT22;14648;49.730;8.614;2022-12-11T13:46:30;2.00;62.40
27114;DHT22;14648;49.730;8.614;2022-12-11T13:49:00;2.00;62.30
27114;DHT22;14648;49.730;8.614;2022-12-11T13:51:29;2.10;62.50
27114;DHT22;14648;49.730;8.614;2022-12-11T13:54:10;2.10;62.40
27114;DHT22;14648;49.730;8.614;2022-12-11T13:56:40;2.20;62.40
27114;DHT22;14648;49.730;8.614;2022-12-11T13:59:23;2.20;62.30
27114;DHT22;14648;49.730;8.614;2022-12-11T14:01:53;2.20;62.30
27114;DHT22;14648;49.730;8.614;2022-12-11T14:04:24;2.20;62.40
27114;DHT22;14648;49.730;8.614;2022-12-11T14:06:50;2.20;62.40
27114;DHT22;14648;49.730;8.614;2022-12-11T14:09:20;2.20;62.40
27114;DHT22;14648;49.730;8.614;2022-12-11T14:11:48;2.30;62.50
27114;DHT22;14648;49.730;8.614;2022-12-11T14:14:28;2.20;62.40
27114;DHT22;14648;49.730;8.614;2022-12-11T14:17:22;2.30;63.10
27114;DHT22;14648;49.730;8.614;2022-12-11T14:19:50;2.20;62.30
27114;DHT22;14648;49.730;8.614;2022-12-11T14:22:22;2.30;62.40
27114;DHT22;14648;49.730;8.614;2022-12-11T14:24:54;2.30;62.30
27114;DHT22;14648;49.730;8.614;2022-12-11T14:27:23;2.30;62.40
27114;DHT22;14648;49.730;8.614;2022-12-11T14:29:50;2.30;62.30
27114;DHT22;14648;49.730;8.614;2022-12-11T14:32:31;2.30;62.20
27114;DHT22;14648;49.730;8.614;2022-12-11T14:35:05;2.20;62.00
27114;DHT22;14648;49.730;8.614;2022-12-11T14:37:38;2.20;62.30
27114;DHT22;14648;49.730;8.614;2022-12-11T14:40:35;2.20;62.30
27114;DHT22;14648;49.730;8.614;2022-12-11T14:43:09;2.20;62.20
27114;DHT22;14648;49.730;8.614;2022-12-11T14:45:39;2.20;62.30
27114;DHT22;14648;49.730;8.614;2022-12-11T14:48:34;2.20;62.30
27114;DHT22;14648;49.730;8.614;2022-12-11T14:51:03;2.10;62.30
27114;DHT22;14648;49.730;8.614;2022-12-11T14:53:40;2.20;62.20
27114;DHT22;14648;49.730;8.614;2022-12-11T14:56:19;2.10;62.10
27114;DHT22;14648;49.730;8.614;2022-12-11T14:59:02;2.10;62.30
27114;DHT22;14648;49.730;8.614;2022-12-11T15:01:35;2.10;62.40
27114;DHT22;14648;49.730;8.614;2022-12-11T15:06:48;2.10;62.90
27114;DHT22;14648;49.730;8.614;2022-12-11T15:09:35;2.10;62.20
27114;DHT22;14648;49.730;8.614;2022-12-11T15:12:11;2.10;62.70
27114;DHT22;14648;49.730;8.614;2022-12-11T15:14:55;2.10;62.20
27114;DHT22;14648;49.730;8.614;2022-12-11T15:17:27;2.10;62.10
27114;DHT22;14648;49.730;8.614;2022-12-11T15:20:25;2.10;62.10
27114;DHT22;14648;49.730;8.614;2022-12-11T15:22:52;2.10;62.10
27114;DHT22;14648;49.730;8.614;2022-12-11T15:25:24;2.10;62.10
27114;DHT22;14648;49.730;8.614;2022-12-11T15:27:54;2.20;62.00
27114;DHT22;14648;49.730;8.614;2022-12-11T15:30:23;2.20;62.00
27114;DHT22;14648;49.730;8.614;2022-12-11T15:35:38;2.20;61.90
27114;DHT22;14648;49.730;8.614;2022-12-11T15:38:23;2.20;61.90
27114;DHT22;14648;49.730;8.614;2022-12-11T15:41:00;2.20;61.80
27114;DHT22;14648;49.730;8.614;2022-12-11T15:43:27;2.20;62.00
27114;DHT22;14648;49.730;8.614;2022-12-11T15:46:01;2.10;62.00
27114;DHT22;14648;49.730;8.614;2022-12-11T15:48:27;2.10;62.00
27114;DHT22;14648;49.730;8.614;2022-12-11T15:50:53;2.10;62.00
27114;DHT22;14648;49.730;8.614;2022-12-11T15:53:18;2.10;62.10
27114;DHT22;14648;49.730;8.614;2022-12-11T15:55:45;2.10;62.00
27114;DHT22;14648;49.730;8.614;2022-12-11T15:58:21;2.20;62.00
27114;DHT22;14648;49.730;8.614;2022-12-11T16:00:47;2.10;62.00
27114;DHT22;14648;49.730;8.614;2022-12-11T16:03:14;2.10;62.00
27114;DHT22;14648;49.730;8.614;2022-12-11T16:05:42;2.10;62.00
27114;DHT22;14648;49.730;8.614;2022-12-11T16:08:12;2.10;62.00
27114;DHT22;14648;49.730;8.614;2022-12-11T16:10:41;2.10;62.10
27114;DHT22;14648;49.730;8.614;2022-12-11T16:13:12;2.10;62.20
27114;DHT22;14648;49.730;8.614;2022-12-11T16:15:41;2.10;62.20
27114;DHT22;14648;49.730;8.614;2022-12-11T16:18:20;2.10;62.10
27114;DHT22;14648;49.730;8.614;2022-12-11T16:20:47;2.10;62.00
27114;DHT22;14648;49.730;8.614;2022-12-11T16:23:14;2.20;62.00
27114;DHT22;14648;49.730;8.614;2022-12-11T16:25:48;2.10;62.00
27114;DHT22;14648;49.730;8.614;2022-12-11T16:28:20;2.20;62.00
27114;DHT22;14648;49.730;8.614;2022-12-11T16:30:46;2.20;62.00
27114;DHT22;14648;49.730;8.614;2022-12-11T16:33:15;2.20;62.00
27114;DHT22;14648;49.730;8.614;2022-12-11T16:35:41;2.20;62.00
27114;DHT22;14648;49.730;8.614;2022-12-11T16:38:07;2.10;62.00
27114;DHT22;14648;49.730;8.614;2022-12-11T16:40:34;2.20;62.00
27114;DHT22;14648;49.730;8.614;2022-12-11T16:43:00;2.20;62.00
27114;DHT22;14648;49.730;8.614;2022-12-11T16:45:27;2.20;62.00
27114;DHT22;14648;49.730;8.614;2022-12-11T16:47:53;2.20;62.00
27114;DHT22;14648;49.730;8.614;2022-12-11T16:50:19;2.20;62.00
27114;DHT22;14648;49.730;8.614;2022-12-11T16:52:47;2.20;62.00
27114;DHT22;14648;49.730;8.614;2022-12-11T16:55:13;2.20;62.00
27114;DHT22;14648;49.730;8.614;2022-12-11T16:57:40;2.20;62.00
27114;DHT22;14648;49.730;8.614;2022-12-11T17:00:07;2.20;62.00
27114;DHT22;14648;49.730;8.614;2022-12-11T17:02:34;2.20;62.10
27114;DHT22;14648;49.730;8.614;2022-12-11T17:05:00;2.20;62.00
27114;DHT22;14648;49.730;8.614;2022-12-11T17:07:26;2.20;62.10
27114;DHT22;14648;49.730;8.614;2022-12-11T17:09:52;2.20;62.00
27114;DHT22;14648;49.730;8.614;2022-12-11T17:12:18;2.20;62.10
27114;DHT22;14648;49.730;8.614;2022-12-11T17:14:47;2.20;62.00
27114;DHT22;14648;49.730;8.614;2022-12-11T17:17:13;2.20;62.00